sensor_id;sensor_type;location;lat;lon;timestamp;temperature;humidity
1453;DHT22;720;47.738;7.998;2024-01-10T00:01:32;-0.30;94.10
1453;DHT22;720;47.738;7.998;2024-01-10T00:03:58;-0.40;94.10
1453;DHT22;720;47.738;7.998;2024-01-10T00:06:24;-0.40;94.20
1453;DHT22;720;47.738;7.998;2024-01-10T00:08:50;-0.30;94.20
1453;DHT22;720;47.738;7.998;2024-01-10T00:11:17;-0.10;94.40
1453;DHT22;720;47.738;7.998;2024-01-10T00:13:43;0.00;94.20
1453;DHT22;720;47.738;7.998;2024-01-10T00:16:11;0.00;94.00
1453;DHT22;720;47.738;7.998;2024-01-10T00:18:37;0.00;94.00
1453;DHT22;720;47.738;7.998;2024-01-10T00:21:04;0.00;94.00
1453;DHT22;720;47.738;7.998;2024-01-10T00:23:30;0.00;94.10
1453;DHT22;720;47.738;7.998;2024-01-10T00:25:56;0.00;94.30
1453;DHT22;720;47.738;7.998;2024-01-10T00:28:22;0.00;94.30
1453;DHT22;720;47.738;7.998;2024-01-10T00:30:47;0.10;94.40
1453;DHT22;720;47.738;7.998;2024-01-10T00:33:14;0.20;94.40
1453;DHT22;720;47.738;7.998;2024-01-10T00:35:39;0.20;94.20
1453;DHT22;720;47.738;7.998;2024-01-10T00:38:05;0.30;94.00
1453;DHT22;720;47.738;7.998;2024-01-10T00:40:31;0.30;93.90
1453;DHT22;720;47.738;7.998;2024-01-10T00:42:56;0.30;93.80
1453;DHT22;720;47.738;7.998;2024-01-10T00:45:22;0.20;93.90
1453;DHT22;720;47.738;7.998;2024-01-10T00:47:51;0.20;94.00
1453;DHT22;720;47.738;7.998;2024-01-10T00:50:17;0.10;94.20
1453;DHT22;720;47.738;7.998;2024-01-10T00:52:44;0.00;94.30
1453;DHT22;720;47.738;7.998;2024-01-10T00:55:10;0.00;94.40
1453;DHT22;720;47.738;7.998;2024-01-10T00:57:35;0.10;94.40
1453;DHT22;720;47.738;7.998;2024-01-10T01:00:07;0.10;94.50
1453;DHT22;720;47.738;7.998;2024-01-10T01:02:33;0.00;94.50
1453;DHT22;720;47.738;7.998;2024-01-10T01:04:58;0.00;94.60
1453;DHT22;720;47.738;7.998;2024-01-10T01:07:24;-0.10;94.60
1453;DHT22;720;47.738;7.998;2024-01-10T01:09:52;-0.10;94.70
1453;DHT22;720;47.738;7.998;2024-01-10T01:12:17;0.10;94.80
1453;DHT22;720;47.738;7.998;2024-01-10T01:14:43;0.20;94.60
1453;DHT22;720;47.738;7.998;2024-01-10T01:17:09;0.10;94.60
1453;DHT22;720;47.738;7.998;2024-01-10T01:19:35;0.10;94.60
1453;DHT22;720;47.738;7.998;2024-01-10T01:22:00;0.10;94.60
1453;DHT22;720;47.738;7.998;2024-01-10T01:24:26;0.20;94.70
1453;DHT22;720;47.738;7.998;2024-01-10T01:26:52;0.30;94.60
1453;DHT22;720;47.738;7.998;2024-01-10T01:29:18;0.30;94.30
1453;DHT22;720;47.738;7.998;2024-01-10T01:31:44;0.30;94.40
1453;DHT22;720;47.738;7.998;2024-01-10T01:34:09;0.20;94.40
1453;DHT22;720;47.738;7.998;2024-01-10T01:36:35;0.20;94.50
1453;DHT22;720;47.738;7.998;2024-01-10T01:39:01;0.20;94.50
1453;DHT22;720;47.738;7.998;2024-01-10T01:41:26;0.20;94.50
1453;DHT22;720;47.738;7.998;2024-01-10T01:43:52;0.20;94.50
1453;DHT22;720;47.738;7.998;2024-01-10T01:46:18;0.10;94.50
1453;DHT22;720;47.738;7.998;2024-01-10T01:48:43;0.10;94.50
1453;DHT22;720;47.738;7.998;2024-01-10T01:51:10;0.10;94.60
1453;DHT22;720;47.738;7.998;2024-01-10T01:53:37;0.10;94.60
1453;DHT22;720;47.738;7.998;2024-01-10T01:56:08;0.00;94.50
1453;DHT22;720;47.738;7.998;2024-01-10T01:58:35;0.00;94.30
1453;DHT22;720;47.738;7.998;2024-01-10T02:01:03;-0.10;94.20
1453;DHT22;720;47.738;7.998;2024-01-10T02:03:31;-0.30;94.30
1453;DHT22;720;47.738;7.998;2024-01-10T02:05:57;-0.40;94.40
1453;DHT22;720;47.738;7.998;2024-01-10T02:08:23;-0.50;94.70
1453;DHT22;720;47.738;7.998;2024-01-10T02:10:49;-0.60;94.90
1453;DHT22;720;47.738;7.998;2024-01-10T02:13:15;-0.70;95.10
1453;DHT22;720;47.738;7.998;2024-01-10T02:15:41;-0.70;95.20
1453;DHT22;720;47.738;7.998;2024-01-10T02:18:07;-0.70;95.30
1453;DHT22;720;47.738;7.998;2024-01-10T02:20:33;-0.70;95.30
1453;DHT22;720;47.738;7.998;2024-01-10T02:22:58;-0.60;95.30
1453;DHT22;720;47.738;7.998;2024-01-10T02:25:24;-0.60;95.40
1453;DHT22;720;47.738;7.998;2024-01-10T02:27:49;-0.70;95.40
1453;DHT22;720;47.738;7.998;2024-01-10T02:30:15;-0.70;95.60
1453;DHT22;720;47.738;7.998;2024-01-10T02:32:41;-0.80;95.70
1453;DHT22;720;47.738;7.998;2024-01-10T02:35:07;-0.70;95.90
1453;DHT22;720;47.738;7.998;2024-01-10T02:37:33;-0.70;95.90
1453;DHT22;720;47.738;7.998;2024-01-10T02:39:59;-0.50;95.80
1453;DHT22;720;47.738;7.998;2024-01-10T02:42:27;-0.50;95.50
1453;DHT22;720;47.738;7.998;2024-01-10T02:44:53;-0.50;95.60
1453;DHT22;720;47.738;7.998;2024-01-10T02:47:18;-0.50;95.60
1453;DHT22;720;47.738;7.998;2024-01-10T02:49:47;-0.40;95.70
1453;DHT22;720;47.738;7.998;2024-01-10T02:52:12;-0.40;95.60
1453;DHT22;720;47.738;7.998;2024-01-10T02:54:38;-0.40;95.70
1453;DHT22;720;47.738;7.998;2024-01-10T02:57:04;-0.40;95.80
1453;DHT22;720;47.738;7.998;2024-01-10T02:59:29;-0.30;95.90
1453;DHT22;720;47.738;7.998;2024-01-10T03:01:55;-0.20;95.80
1453;DHT22;720;47.738;7.998;2024-01-10T03:04:20;-0.20;95.70
1453;DHT22;720;47.738;7.998;2024-01-10T03:06:46;-0.20;95.70
1453;DHT22;720;47.738;7.998;2024-01-10T03:09:12;-0.10;95.80
1453;DHT22;720;47.738;7.998;2024-01-10T03:11:37;0.00;95.60
1453;DHT22;720;47.738;7.998;2024-01-10T03:14:07;0.10;95.20
1453;DHT22;720;47.738;7.998;2024-01-10T03:16:33;0.00;95.00
1453;DHT22;720;47.738;7.998;2024-01-10T03:18:59;0.00;95.20
1453;DHT22;720;47.738;7.998;2024-01-10T03:21:25;0.00;95.30
1453;DHT22;720;47.738;7.998;2024-01-10T03:23:55;0.00;95.50
1453;DHT22;720;47.738;7.998;2024-01-10T03:26:21;0.10;95.60
1453;DHT22;720;47.738;7.998;2024-01-10T03:28:47;0.10;95.60
1453;DHT22;720;47.738;7.998;2024-01-10T03:31:12;0.10;95.70
1453;DHT22;720;47.738;7.998;2024-01-10T03:33:38;0.10;95.50
1453;DHT22;720;47.738;7.998;2024-01-10T03:36:05;0.20;95.50
1453;DHT22;720;47.738;7.998;2024-01-10T03:38:31;0.20;95.40
1453;DHT22;720;47.738;7.998;2024-01-10T03:40:56;0.30;95.40
1453;DHT22;720;47.738;7.998;2024-01-10T03:43:22;0.30;95.40
1453;DHT22;720;47.738;7.998;2024-01-10T03:45:48;0.40;95.20
1453;DHT22;720;47.738;7.998;2024-01-10T03:48:13;0.40;95.10
1453;DHT22;720;47.738;7.998;2024-01-10T03:50:39;0.40;94.90
1453;DHT22;720;47.738;7.998;2024-01-10T03:53:04;0.50;94.90
1453;DHT22;720;47.738;7.998;2024-01-10T03:55:31;0.50;94.80
1453;DHT22;720;47.738;7.998;2024-01-10T03:57:57;0.40;94.90
1453;DHT22;720;47.738;7.998;2024-01-10T04:00:23;0.30;94.90
1453;DHT22;720;47.738;7.998;2024-01-10T04:02:48;0.30;95.10
1453;DHT22;720;47.738;7.998;2024-01-10T04:05:14;0.40;95.00
1453;DHT22;720;47.738;7.998;2024-01-10T04:07:40;0.30;94.80
1453;DHT22;720;47.738;7.998;2024-01-10T04:10:12;0.20;94.80
1453;DHT22;720;47.738;7.998;2024-01-10T04:12:43;0.10;95.00
1453;DHT22;720;47.738;7.998;2024-01-10T04:15:09;0.10;95.10
1453;DHT22;720;47.738;7.998;2024-01-10T04:17:35;0.00;95.20
1453;DHT22;720;47.738;7.998;2024-01-10T04:20:01;0.00;95.40
1453;DHT22;720;47.738;7.998;2024-01-10T04:22:28;0.00;95.50
1453;DHT22;720;47.738;7.998;2024-01-10T04:24:56;0.00;95.70
1453;DHT22;720;47.738;7.998;2024-01-10T04:27:22;0.10;95.80
1453;DHT22;720;47.738;7.998;2024-01-10T04:29:48;0.20;95.70
1453;DHT22;720;47.738;7.998;2024-01-10T04:32:13;0.30;95.70
1453;DHT22;720;47.738;7.998;2024-01-10T04:34:39;0.30;95.70
1453;DHT22;720;47.738;7.998;2024-01-10T04:37:05;0.40;95.80
1453;DHT22;720;47.738;7.998;2024-01-10T04:39:33;0.40;95.80
1453;DHT22;720;47.738;7.998;2024-01-10T04:41:59;0.50;95.80
1453;DHT22;720;47.738;7.998;2024-01-10T04:44:24;0.50;95.70
1453;DHT22;720;47.738;7.998;2024-01-10T04:46:50;0.40;95.60
1453;DHT22;720;47.738;7.998;2024-01-10T04:49:16;0.50;95.70
1453;DHT22;720;47.738;7.998;2024-01-10T04:51:41;0.50;95.60
1453;DHT22;720;47.738;7.998;2024-01-10T04:54:07;0.40;95.40
1453;DHT22;720;47.738;7.998;2024-01-10T04:56:32;0.40;95.40
1453;DHT22;720;47.738;7.998;2024-01-10T04:58:58;0.40;95.40
1453;DHT22;720;47.738;7.998;2024-01-10T05:01:24;0.40;95.40
1453;DHT22;720;47.738;7.998;2024-01-10T05:03:49;0.40;95.30
1453;DHT22;720;47.738;7.998;2024-01-10T05:06:15;0.40;95.30
1453;DHT22;720;47.738;7.998;2024-01-10T05:08:41;0.30;95.40
1453;DHT22;720;47.738;7.998;2024-01-10T05:11:06;0.20;95.60
1453;DHT22;720;47.738;7.998;2024-01-10T05:13:32;0.20;95.70
1453;DHT22;720;47.738;7.998;2024-01-10T05:15:57;0.20;95.80
1453;DHT22;720;47.738;7.998;2024-01-10T05:18:23;0.30;95.70
1453;DHT22;720;47.738;7.998;2024-01-10T05:20:49;0.20;95.70
1453;DHT22;720;47.738;7.998;2024-01-10T05:23:15;0.20;95.80
1453;DHT22;720;47.738;7.998;2024-01-10T05:25:41;0.10;95.80
1453;DHT22;720;47.738;7.998;2024-01-10T05:28:06;-0.10;95.90
1453;DHT22;720;47.738;7.998;2024-01-10T05:30:32;-0.50;96.20
1453;DHT22;720;47.738;7.998;2024-01-10T05:32:58;-0.60;96.70
1453;DHT22;720;47.738;7.998;2024-01-10T05:35:24;-0.70;97.10
1453;DHT22;720;47.738;7.998;2024-01-10T05:37:51;-0.50;97.30
1453;DHT22;720;47.738;7.998;2024-01-10T05:40:17;-0.50;97.30
1453;DHT22;720;47.738;7.998;2024-01-10T05:42:44;-0.30;97.10
1453;DHT22;720;47.738;7.998;2024-01-10T05:45:10;-0.20;96.90
1453;DHT22;720;47.738;7.998;2024-01-10T05:47:36;-0.10;96.80
1453;DHT22;720;47.738;7.998;2024-01-10T05:50:02;0.00;96.70
1453;DHT22;720;47.738;7.998;2024-01-10T05:52:31;0.00;96.60
1453;DHT22;720;47.738;7.998;2024-01-10T05:54:57;0.10;96.60
1453;DHT22;720;47.738;7.998;2024-01-10T05:57:24;0.10;96.50
1453;DHT22;720;47.738;7.998;2024-01-10T05:59:50;0.20;96.50
1453;DHT22;720;47.738;7.998;2024-01-10T06:02:18;0.20;96.50
1453;DHT22;720;47.738;7.998;2024-01-10T06:04:43;0.30;96.70
1453;DHT22;720;47.738;7.998;2024-01-10T06:07:09;0.40;96.70
1453;DHT22;720;47.738;7.998;2024-01-10T06:09:34;0.40;96.50
1453;DHT22;720;47.738;7.998;2024-01-10T06:12:00;0.30;96.40
1453;DHT22;720;47.738;7.998;2024-01-10T06:14:26;0.40;96.50
1453;DHT22;720;47.738;7.998;2024-01-10T06:16:51;0.40;96.60
1453;DHT22;720;47.738;7.998;2024-01-10T06:19:17;0.40;96.50
1453;DHT22;720;47.738;7.998;2024-01-10T06:21:44;0.50;96.60
1453;DHT22;720;47.738;7.998;2024-01-10T06:24:09;0.60;96.70
1453;DHT22;720;47.738;7.998;2024-01-10T06:26:36;0.60;96.60
1453;DHT22;720;47.738;7.998;2024-01-10T06:29:01;0.70;96.50
1453;DHT22;720;47.738;7.998;2024-01-10T06:31:27;0.70;96.30
1453;DHT22;720;47.738;7.998;2024-01-10T06:33:52;0.80;96.30
1453;DHT22;720;47.738;7.998;2024-01-10T06:36:18;0.90;96.20
1453;DHT22;720;47.738;7.998;2024-01-10T06:38:44;0.80;96.10
1453;DHT22;720;47.738;7.998;2024-01-10T06:41:10;0.90;95.90
1453;DHT22;720;47.738;7.998;2024-01-10T06:43:40;0.80;95.70
1453;DHT22;720;47.738;7.998;2024-01-10T06:46:06;0.80;95.80
1453;DHT22;720;47.738;7.998;2024-01-10T06:48:32;0.80;95.90
1453;DHT22;720;47.738;7.998;2024-01-10T06:50:59;0.80;96.00
1453;DHT22;720;47.738;7.998;2024-01-10T06:53:24;0.70;96.10
1453;DHT22;720;47.738;7.998;2024-01-10T06:55:50;0.70;96.40
1453;DHT22;720;47.738;7.998;2024-01-10T06:58:16;0.80;96.50
1453;DHT22;720;47.738;7.998;2024-01-10T07:00:41;0.80;96.50
1453;DHT22;720;47.738;7.998;2024-01-10T07:03:07;0.90;96.40
1453;DHT22;720;47.738;7.998;2024-01-10T07:05:33;0.90;96.20
1453;DHT22;720;47.738;7.998;2024-01-10T07:07:59;0.90;96.20
1453;DHT22;720;47.738;7.998;2024-01-10T07:10:31;0.90;96.20
1453;DHT22;720;47.738;7.998;2024-01-10T07:12:58;0.90;96.40
1453;DHT22;720;47.738;7.998;2024-01-10T07:15:24;1.00;96.50
1453;DHT22;720;47.738;7.998;2024-01-10T07:17:50;1.00;96.50
1453;DHT22;720;47.738;7.998;2024-01-10T07:20:15;1.00;96.40
1453;DHT22;720;47.738;7.998;2024-01-10T07:22:41;1.00;96.30
1453;DHT22;720;47.738;7.998;2024-01-10T07:25:09;1.00;96.40
1453;DHT22;720;47.738;7.998;2024-01-10T07:27:35;1.10;96.40
1453;DHT22;720;47.738;7.998;2024-01-10T07:30:07;1.10;96.30
1453;DHT22;720;47.738;7.998;2024-01-10T07:32:39;1.00;96.30
1453;DHT22;720;47.738;7.998;2024-01-10T07:35:06;1.00;96.50
1453;DHT22;720;47.738;7.998;2024-01-10T07:37:35;1.10;96.40
1453;DHT22;720;47.738;7.998;2024-01-10T07:40:01;1.10;96.50
1453;DHT22;720;47.738;7.998;2024-01-10T07:42:27;1.10;96.70
1453;DHT22;720;47.738;7.998;2024-01-10T07:44:52;1.10;96.60
1453;DHT22;720;47.738;7.998;2024-01-10T07:47:18;1.10;96.50
1453;DHT22;720;47.738;7.998;2024-01-10T07:49:45;1.20;96.60
1453;DHT22;720;47.738;7.998;2024-01-10T07:52:10;1.10;96.50
1453;DHT22;720;47.738;7.998;2024-01-10T07:54:36;1.10;96.60
1453;DHT22;720;47.738;7.998;2024-01-10T07:57:01;1.20;96.70
1453;DHT22;720;47.738;7.998;2024-01-10T07:59:27;1.20;96.80
1453;DHT22;720;47.738;7.998;2024-01-10T08:01:56;1.10;96.60
1453;DHT22;720;47.738;7.998;2024-01-10T08:04:24;1.10;96.70
1453;DHT22;720;47.738;7.998;2024-01-10T08:06:50;1.10;96.70
1453;DHT22;720;47.738;7.998;2024-01-10T08:09:16;1.00;96.50
1453;DHT22;720;47.738;7.998;2024-01-10T08:11:41;1.00;96.60
1453;DHT22;720;47.738;7.998;2024-01-10T08:14:07;1.10;96.80
1453;DHT22;720;47.738;7.998;2024-01-10T08:16:32;1.30;96.90
1453;DHT22;720;47.738;7.998;2024-01-10T08:18:58;1.40;96.50
1453;DHT22;720;47.738;7.998;2024-01-10T08:21:24;1.60;95.70
1453;DHT22;720;47.738;7.998;2024-01-10T08:23:50;1.50;95.20
1453;DHT22;720;47.738;7.998;2024-01-10T08:26:16;1.60;95.10
1453;DHT22;720;47.738;7.998;2024-01-10T08:28:42;1.60;95.10
1453;DHT22;720;47.738;7.998;2024-01-10T08:31:08;1.60;95.10
1453;DHT22;720;47.738;7.998;2024-01-10T08:33:34;1.60;95.30
1453;DHT22;720;47.738;7.998;2024-01-10T08:36:00;1.60;95.50
1453;DHT22;720;47.738;7.998;2024-01-10T08:38:27;1.80;95.80
1453;DHT22;720;47.738;7.998;2024-01-10T08:40:52;2.00;95.70
1453;DHT22;720;47.738;7.998;2024-01-10T08:43:18;2.20;95.60
1453;DHT22;720;47.738;7.998;2024-01-10T08:45:44;2.30;95.10
1453;DHT22;720;47.738;7.998;2024-01-10T08:48:09;2.30;94.70
1453;DHT22;720;47.738;7.998;2024-01-10T08:50:37;2.40;95.00
1453;DHT22;720;47.738;7.998;2024-01-10T08:53:03;2.50;95.00
1453;DHT22;720;47.738;7.998;2024-01-10T08:55:33;2.60;95.20
1453;DHT22;720;47.738;7.998;2024-01-10T08:57:59;2.70;94.80
1453;DHT22;720;47.738;7.998;2024-01-10T09:00:25;2.80;94.80
1453;DHT22;720;47.738;7.998;2024-01-10T09:02:51;2.80;94.80
1453;DHT22;720;47.738;7.998;2024-01-10T09:05:17;2.80;94.60
1453;DHT22;720;47.738;7.998;2024-01-10T09:07:43;2.90;94.70
1453;DHT22;720;47.738;7.998;2024-01-10T09:10:09;3.00;94.50
1453;DHT22;720;47.738;7.998;2024-01-10T09:12:36;3.40;94.80
1453;DHT22;720;47.738;7.998;2024-01-10T09:15:02;3.50;94.70
1453;DHT22;720;47.738;7.998;2024-01-10T09:17:28;3.60;94.10
1453;DHT22;720;47.738;7.998;2024-01-10T09:19:53;3.70;93.90
1453;DHT22;720;47.738;7.998;2024-01-10T09:22:19;3.90;94.30
1453;DHT22;720;47.738;7.998;2024-01-10T09:24:45;4.20;94.00
1453;DHT22;720;47.738;7.998;2024-01-10T09:27:11;4.30;93.70
1453;DHT22;720;47.738;7.998;2024-01-10T09:29:37;4.30;94.40
1453;DHT22;720;47.738;7.998;2024-01-10T09:32:03;4.40;94.60
1453;DHT22;720;47.738;7.998;2024-01-10T09:34:29;4.60;94.40
1453;DHT22;720;47.738;7.998;2024-01-10T09:36:55;4.60;94.50
1453;DHT22;720;47.738;7.998;2024-01-10T09:39:20;4.70;95.20
1453;DHT22;720;47.738;7.998;2024-01-10T09:41:47;4.90;95.50
1453;DHT22;720;47.738;7.998;2024-01-10T09:44:17;4.90;95.30
1453;DHT22;720;47.738;7.998;2024-01-10T09:46:49;4.90;95.20
1453;DHT22;720;47.738;7.998;2024-01-10T09:49:16;4.70;95.50
1453;DHT22;720;47.738;7.998;2024-01-10T09:51:42;4.70;95.70
1453;DHT22;720;47.738;7.998;2024-01-10T09:54:08;4.50;95.90
1453;DHT22;720;47.738;7.998;2024-01-10T09:56:34;4.50;96.10
1453;DHT22;720;47.738;7.998;2024-01-10T09:59:01;4.60;96.60
1453;DHT22;720;47.738;7.998;2024-01-10T10:01:30;4.90;96.60
1453;DHT22;720;47.738;7.998;2024-01-10T10:03:57;5.20;96.60
1453;DHT22;720;47.738;7.998;2024-01-10T10:06:23;5.70;96.20
1453;DHT22;720;47.738;7.998;2024-01-10T10:08:49;6.10;95.30
1453;DHT22;720;47.738;7.998;2024-01-10T10:11:15;6.40;95.00
1453;DHT22;720;47.738;7.998;2024-01-10T10:13:41;6.50;94.50
1453;DHT22;720;47.738;7.998;2024-01-10T10:16:08;6.50;94.70
1453;DHT22;720;47.738;7.998;2024-01-10T10:18:35;6.60;94.20
1453;DHT22;720;47.738;7.998;2024-01-10T10:21:11;6.50;94.30
1453;DHT22;720;47.738;7.998;2024-01-10T10:23:39;6.60;94.60
1453;DHT22;720;47.738;7.998;2024-01-10T10:26:16;7.00;94.60
1453;DHT22;720;47.738;7.998;2024-01-10T10:28:49;7.40;94.20
1453;DHT22;720;47.738;7.998;2024-01-10T10:31:19;7.70;93.50
1453;DHT22;720;47.738;7.998;2024-01-10T10:33:45;7.30;93.00
1453;DHT22;720;47.738;7.998;2024-01-10T10:36:13;7.20;93.30
1453;DHT22;720;47.738;7.998;2024-01-10T10:38:39;7.30;93.30
1453;DHT22;720;47.738;7.998;2024-01-10T10:41:06;7.50;93.50
1453;DHT22;720;47.738;7.998;2024-01-10T10:43:41;7.70;93.10
1453;DHT22;720;47.738;7.998;2024-01-10T10:46:09;7.80;92.70
1453;DHT22;720;47.738;7.998;2024-01-10T10:48:36;7.80;92.50
1453;DHT22;720;47.738;7.998;2024-01-10T10:51:11;7.80;92.70
1453;DHT22;720;47.738;7.998;2024-01-10T10:53:38;7.90;92.70
1453;DHT22;720;47.738;7.998;2024-01-10T10:56:06;7.90;92.20
1453;DHT22;720;47.738;7.998;2024-01-10T10:58:43;8.10;92.60
1453;DHT22;720;47.738;7.998;2024-01-10T11:01:11;8.10;92.00
1453;DHT22;720;47.738;7.998;2024-01-10T11:03:39;7.90;92.00
1453;DHT22;720;47.738;7.998;2024-01-10T11:06:14;7.60;92.30
1453;DHT22;720;47.738;7.998;2024-01-10T11:09:18;7.60;92.80
1453;DHT22;720;47.738;7.998;2024-01-10T11:12:20;7.70;92.70
1453;DHT22;720;47.738;7.998;2024-01-10T11:18:33;7.20;93.10
1453;DHT22;720;47.738;7.998;2024-01-10T11:21:22;7.20;93.30
1453;DHT22;720;47.738;7.998;2024-01-10T11:23:58;7.30;93.20
1453;DHT22;720;47.738;7.998;2024-01-10T11:26:24;7.30;93.40
1453;DHT22;720;47.738;7.998;2024-01-10T11:28:50;7.30;93.40
1453;DHT22;720;47.738;7.998;2024-01-10T11:31:27;7.30;93.20
1453;DHT22;720;47.738;7.998;2024-01-10T11:33:56;7.30;93.10
1453;DHT22;720;47.738;7.998;2024-01-10T11:36:22;7.10;93.10
1453;DHT22;720;47.738;7.998;2024-01-10T11:46:47;6.60;93.80
1453;DHT22;720;47.738;7.998;2024-01-10T11:49:17;6.50;94.00
1453;DHT22;720;47.738;7.998;2024-01-10T11:51:44;6.40;94.20
1453;DHT22;720;47.738;7.998;2024-01-10T11:54:10;6.10;94.30
1453;DHT22;720;47.738;7.998;2024-01-10T11:56:41;5.90;94.50
1453;DHT22;720;47.738;7.998;2024-01-10T11:59:09;5.70;94.80
1453;DHT22;720;47.738;7.998;2024-01-10T12:01:37;5.40;95.50
1453;DHT22;720;47.738;7.998;2024-01-10T12:04:04;5.20;96.00
1453;DHT22;720;47.738;7.998;2024-01-10T12:06:32;4.90;96.20
1453;DHT22;720;47.738;7.998;2024-01-10T12:08:58;4.90;96.60
1453;DHT22;720;47.738;7.998;2024-01-10T12:11:24;4.90;96.70
1453;DHT22;720;47.738;7.998;2024-01-10T12:13:50;5.10;96.80
1453;DHT22;720;47.738;7.998;2024-01-10T12:16:16;5.10;96.70
1453;DHT22;720;47.738;7.998;2024-01-10T12:18:43;4.90;96.70
1453;DHT22;720;47.738;7.998;2024-01-10T12:21:09;4.60;96.90
1453;DHT22;720;47.738;7.998;2024-01-10T12:23:38;4.60;97.10
1453;DHT22;720;47.738;7.998;2024-01-10T12:26:11;4.70;97.20
1453;DHT22;720;47.738;7.998;2024-01-10T12:28:41;4.80;97.10
1453;DHT22;720;47.738;7.998;2024-01-10T12:31:18;4.80;96.90
1453;DHT22;720;47.738;7.998;2024-01-10T12:33:44;4.80;96.90
1453;DHT22;720;47.738;7.998;2024-01-10T12:36:10;4.80;96.90
1453;DHT22;720;47.738;7.998;2024-01-10T12:38:39;4.80;97.00
1453;DHT22;720;47.738;7.998;2024-01-10T12:41:05;4.80;97.00
1453;DHT22;720;47.738;7.998;2024-01-10T12:43:34;4.60;96.90
1453;DHT22;720;47.738;7.998;2024-01-10T12:48:30;4.20;97.60
1453;DHT22;720;47.738;7.998;2024-01-10T12:50:56;4.30;97.70
1453;DHT22;720;47.738;7.998;2024-01-10T12:53:22;4.30;97.80
1453;DHT22;720;47.738;7.998;2024-01-10T12:55:48;4.40;97.80
1453;DHT22;720;47.738;7.998;2024-01-10T12:58:14;4.40;97.70
1453;DHT22;720;47.738;7.998;2024-01-10T13:00:39;4.50;97.50
1453;DHT22;720;47.738;7.998;2024-01-10T13:03:13;4.40;97.50
1453;DHT22;720;47.738;7.998;2024-01-10T13:05:38;4.40;97.50
1453;DHT22;720;47.738;7.998;2024-01-10T13:08:05;4.50;97.60
1453;DHT22;720;47.738;7.998;2024-01-10T13:10:31;4.60;97.60
1453;DHT22;720;47.738;7.998;2024-01-10T13:12:57;4.70;97.40
1453;DHT22;720;47.738;7.998;2024-01-10T13:15:23;4.80;97.20
1453;DHT22;720;47.738;7.998;2024-01-10T13:17:48;4.80;97.10
1453;DHT22;720;47.738;7.998;2024-01-10T13:20:17;4.80;97.10
1453;DHT22;720;47.738;7.998;2024-01-10T13:22:43;5.00;97.10
1453;DHT22;720;47.738;7.998;2024-01-10T13:25:08;5.00;97.00
1453;DHT22;720;47.738;7.998;2024-01-10T13:27:34;5.00;96.90
1453;DHT22;720;47.738;7.998;2024-01-10T13:29:59;5.00;97.00
1453;DHT22;720;47.738;7.998;2024-01-10T13:32:25;5.10;97.00
1453;DHT22;720;47.738;7.998;2024-01-10T13:34:51;5.00;96.90
1453;DHT22;720;47.738;7.998;2024-01-10T13:37:19;5.00;96.90
1453;DHT22;720;47.738;7.998;2024-01-10T13:39:48;5.00;97.00
1453;DHT22;720;47.738;7.998;2024-01-10T13:42:14;5.00;97.00
1453;DHT22;720;47.738;7.998;2024-01-10T13:44:40;4.90;96.90
1453;DHT22;720;47.738;7.998;2024-01-10T13:47:06;4.90;97.00
1453;DHT22;720;47.738;7.998;2024-01-10T13:49:32;4.90;97.20
1453;DHT22;720;47.738;7.998;2024-01-10T13:51:58;4.80;97.30
1453;DHT22;720;47.738;7.998;2024-01-10T13:54:23;4.80;97.40
1453;DHT22;720;47.738;7.998;2024-01-10T13:56:49;4.70;97.50
1453;DHT22;720;47.738;7.998;2024-01-10T13:59:15;4.60;97.70
1453;DHT22;720;47.738;7.998;2024-01-10T14:01:40;4.50;97.90
1453;DHT22;720;47.738;7.998;2024-01-10T14:04:08;4.60;98.30
1453;DHT22;720;47.738;7.998;2024-01-10T14:06:34;4.60;98.00
1453;DHT22;720;47.738;7.998;2024-01-10T14:08:59;4.50;97.90
1453;DHT22;720;47.738;7.998;2024-01-10T14:11:25;4.40;98.40
1453;DHT22;720;47.738;7.998;2024-01-10T14:13:52;4.40;98.40
1453;DHT22;720;47.738;7.998;2024-01-10T14:16:19;4.40;98.40
1453;DHT22;720;47.738;7.998;2024-01-10T14:18:45;4.50;98.40
1453;DHT22;720;47.738;7.998;2024-01-10T14:21:13;4.30;98.40
1453;DHT22;720;47.738;7.998;2024-01-10T14:23:38;4.40;98.60
1453;DHT22;720;47.738;7.998;2024-01-10T14:26:04;4.40;98.50
1453;DHT22;720;47.738;7.998;2024-01-10T14:28:31;4.50;98.50
1453;DHT22;720;47.738;7.998;2024-01-10T14:30:58;4.50;98.50
1453;DHT22;720;47.738;7.998;2024-01-10T14:33:26;4.60;98.30
1453;DHT22;720;47.738;7.998;2024-01-10T14:35:51;4.60;98.10
1453;DHT22;720;47.738;7.998;2024-01-10T14:38:18;4.50;98.20
1453;DHT22;720;47.738;7.998;2024-01-10T14:40:44;4.50;98.20
1453;DHT22;720;47.738;7.998;2024-01-10T14:43:11;4.50;98.30
1453;DHT22;720;47.738;7.998;2024-01-10T14:45:38;4.40;98.30
1453;DHT22;720;47.738;7.998;2024-01-10T14:48:05;4.20;98.60
1453;DHT22;720;47.738;7.998;2024-01-10T14:50:30;4.20;98.70
1453;DHT22;720;47.738;7.998;2024-01-10T14:52:56;4.10;98.80
1453;DHT22;720;47.738;7.998;2024-01-10T14:55:25;4.00;99.20
1453;DHT22;720;47.738;7.998;2024-01-10T14:57:51;4.10;99.30
1453;DHT22;720;47.738;7.998;2024-01-10T15:00:17;4.20;99.10
1453;DHT22;720;47.738;7.998;2024-01-10T15:02:43;4.20;99.00
1453;DHT22;720;47.738;7.998;2024-01-10T15:05:11;4.30;98.90
1453;DHT22;720;47.738;7.998;2024-01-10T15:07:38;4.20;98.70
1453;DHT22;720;47.738;7.998;2024-01-10T15:10:04;4.20;98.70
1453;DHT22;720;47.738;7.998;2024-01-10T15:12:30;4.20;98.60
1453;DHT22;720;47.738;7.998;2024-01-10T15:14:55;4.00;98.60
1453;DHT22;720;47.738;7.998;2024-01-10T15:17:25;3.90;98.80
1453;DHT22;720;47.738;7.998;2024-01-10T15:19:51;3.70;99.10
1453;DHT22;720;47.738;7.998;2024-01-10T15:22:17;3.70;99.20
1453;DHT22;720;47.738;7.998;2024-01-10T15:24:43;3.60;99.40
1453;DHT22;720;47.738;7.998;2024-01-10T15:27:09;3.60;99.70
1453;DHT22;720;47.738;7.998;2024-01-10T15:29:39;3.60;99.50
1453;DHT22;720;47.738;7.998;2024-01-10T15:32:05;3.60;99.50
1453;DHT22;720;47.738;7.998;2024-01-10T15:34:31;3.60;99.40
1453;DHT22;720;47.738;7.998;2024-01-10T15:36:57;3.50;99.40
1453;DHT22;720;47.738;7.998;2024-01-10T15:39:24;3.50;99.50
1453;DHT22;720;47.738;7.998;2024-01-10T15:41:50;3.50;99.60
1453;DHT22;720;47.738;7.998;2024-01-10T15:44:17;3.30;99.80
1453;DHT22;720;47.738;7.998;2024-01-10T15:46:43;3.40;99.90
1453;DHT22;720;47.738;7.998;2024-01-10T15:49:09;3.30;99.90
1453;DHT22;720;47.738;7.998;2024-01-10T15:51:35;3.20;99.90
1453;DHT22;720;47.738;7.998;2024-01-10T15:54:00;3.10;99.90
1453;DHT22;720;47.738;7.998;2024-01-10T15:56:26;3.10;99.90
1453;DHT22;720;47.738;7.998;2024-01-10T15:58:52;3.10;99.90
1453;DHT22;720;47.738;7.998;2024-01-10T16:01:18;3.10;99.80
1453;DHT22;720;47.738;7.998;2024-01-10T16:03:44;3.10;99.90
1453;DHT22;720;47.738;7.998;2024-01-10T16:06:09;3.00;99.90
1453;DHT22;720;47.738;7.998;2024-01-10T16:08:36;2.90;99.90
1453;DHT22;720;47.738;7.998;2024-01-10T16:11:02;3.00;99.90
1453;DHT22;720;47.738;7.998;2024-01-10T16:13:27;3.00;99.80
1453;DHT22;720;47.738;7.998;2024-01-10T16:15:54;3.00;99.80
1453;DHT22;720;47.738;7.998;2024-01-10T16:18:40;2.90;99.80
1453;DHT22;720;47.738;7.998;2024-01-10T16:21:07;2.90;99.90
1453;DHT22;720;47.738;7.998;2024-01-10T16:23:33;2.80;99.90
1453;DHT22;720;47.738;7.998;2024-01-10T16:25:59;2.70;99.80
1453;DHT22;720;47.738;7.998;2024-01-10T16:28:25;2.70;99.90
1453;DHT22;720;47.738;7.998;2024-01-10T16:30:51;2.70;99.90
1453;DHT22;720;47.738;7.998;2024-01-10T16:33:17;2.70;99.90
1453;DHT22;720;47.738;7.998;2024-01-10T16:35:43;2.60;99.90
1453;DHT22;720;47.738;7.998;2024-01-10T16:38:10;2.60;99.90
1453;DHT22;720;47.738;7.998;2024-01-10T16:40:36;2.70;99.90
1453;DHT22;720;47.738;7.998;2024-01-10T16:43:02;2.70;99.80